Time;durP1;ratioP1;P1;durP2;ratioP2;P2;SDS_P1;SDS_P2;PMS_P1;PMS_P2;Temp;Humidity;BMP_temperature;BMP_pressure;BME280_temperature;BME280_humidity;BME280_pressure;Samples;Min_cycle;Max_cycle;Signal;HPM_P1;HPM_P2
2024/01/20 00:01:37;;;;;;;;;;;16.50;39.30;;;;;;5092344;28;20311;-68
2024/01/20 00:04:03;;;;;;;;;;;16.50;39.30;;;;;;5092636;28;19928;-67
2024/01/20 00:06:28;;;;;;;;;;;16.50;39.30;;;;;;5091337;28;19920;-67
2024/01/20 00:08:55;;;;;;;;;;;16.50;39.30;;;;;;5091079;28;19920;-68
2024/01/20 00:11:21;;;;;;;;;;;16.50;39.30;;;;;;5091278;28;19920;-69
2024/01/20 00:13:46;;;;;;;;;;;16.50;39.40;;;;;;5091029;28;20296;-69
2024/01/20 00:16:12;;;;;;;;;;;16.50;39.30;;;;;;5092248;28;19960;-67
2024/01/20 00:18:38;;;;;;;;;;;16.40;39.30;;;;;;5090978;28;19963;-69
2024/01/20 00:21:06;;;;;;;;;;;16.40;39.30;;;;;;5090988;28;19920;-68
2024/01/20 00:23:32;;;;;;;;;;;16.40;39.40;;;;;;5091236;28;19927;-68
2024/01/20 00:25:57;;;;;;;;;;;16.40;39.40;;;;;;5091129;28;20287;-68
2024/01/20 00:28:23;;;;;;;;;;;16.40;39.30;;;;;;5091230;28;19947;-70
2024/01/20 00:30:48;;;;;;;;;;;16.40;39.30;;;;;;5090748;28;19928;-70
2024/01/20 00:33:14;;;;;;;;;;;16.40;39.40;;;;;;5090787;28;20464;-68
2024/01/20 00:35:44;;;;;;;;;;;16.40;39.40;;;;;;5092016;28;19920;-68
2024/01/20 00:38:10;;;;;;;;;;;16.40;39.40;;;;;;5090822;28;20448;-70
2024/01/20 00:40:35;;;;;;;;;;;16.40;39.40;;;;;;5091070;28;19920;-70
2024/01/20 00:43:01;;;;;;;;;;;16.40;39.40;;;;;;5091970;28;20379;-68
2024/01/20 00:45:26;;;;;;;;;;;16.40;39.30;;;;;;5090782;28;20371;-68
2024/01/20 00:47:52;;;;;;;;;;;16.50;39.40;;;;;;5090621;28;20204;-69
2024/01/20 00:50:22;;;;;;;;;;;16.40;39.30;;;;;;5091021;28;19920;-70
2024/01/20 00:52:47;;;;;;;;;;;16.30;39.30;;;;;;5090803;28;19992;-70
2024/01/20 00:55:13;;;;;;;;;;;16.40;39.40;;;;;;5091927;28;20454;-70
2024/01/20 00:57:38;;;;;;;;;;;16.30;39.30;;;;;;5090844;28;20317;-68
2024/01/20 01:00:08;;;;;;;;;;;16.40;39.40;;;;;;5092036;28;20147;-69
2024/01/20 01:02:37;;;;;;;;;;;16.30;39.40;;;;;;5094036;28;19928;-67
2024/01/20 01:05:03;;;;;;;;;;;16.30;39.30;;;;;;5095550;28;19947;-70
2024/01/20 01:07:29;;;;;;;;;;;16.30;39.30;;;;;;5094407;28;20383;-68
2024/01/20 01:09:55;;;;;;;;;;;16.30;39.30;;;;;;5095375;28;19920;-71
2024/01/20 01:12:20;;;;;;;;;;;16.30;39.40;;;;;;5095661;28;19920;-70
2024/01/20 01:14:46;;;;;;;;;;;16.30;39.40;;;;;;5094065;28;20401;-69
2024/01/20 01:17:12;;;;;;;;;;;16.30;39.30;;;;;;5094009;28;19963;-70
2024/01/20 01:19:37;;;;;;;;;;;16.30;39.30;;;;;;5095414;28;19942;-70
2024/01/20 01:22:03;;;;;;;;;;;16.30;39.30;;;;;;5094185;28;19927;-69
2024/01/20 01:24:28;;;;;;;;;;;16.30;39.40;;;;;;5094250;28;19920;-69
2024/01/20 01:26:54;;;;;;;;;;;16.30;39.40;;;;;;5094184;28;20499;-67
2024/01/20 01:29:19;;;;;;;;;;;16.20;39.40;;;;;;5093710;28;20379;-71
2024/01/20 01:31:45;;;;;;;;;;;16.30;39.40;;;;;;5093624;28;19920;-68
2024/01/20 01:34:10;;;;;;;;;;;16.20;39.30;;;;;;5093584;28;19924;-70
2024/01/20 01:36:36;;;;;;;;;;;16.20;39.30;;;;;;5094078;28;20216;-70
2024/01/20 01:39:01;;;;;;;;;;;16.20;39.30;;;;;;5094191;28;20355;-68
2024/01/20 01:41:29;;;;;;;;;;;16.20;39.30;;;;;;5094859;28;19967;-70
2024/01/20 01:43:55;;;;;;;;;;;16.20;39.40;;;;;;5093665;28;19927;-69
2024/01/20 01:46:20;;;;;;;;;;;16.20;39.40;;;;;;5094731;28;20279;-68
2024/01/20 01:48:46;;;;;;;;;;;16.20;39.40;;;;;;5093600;28;19927;-70
2024/01/20 01:51:12;;;;;;;;;;;16.20;39.40;;;;;;5093387;28;19920;-71
2024/01/20 01:53:39;;;;;;;;;;;16.20;39.40;;;;;;5127119;27;20024;-70
2024/01/20 01:56:05;;;;;;;;;;;16.20;40.20;;;;;;5094588;28;20294;-67
2024/01/20 01:58:30;;;;;;;;;;;16.20;39.40;;;;;;5093237;28;20002;-69
2024/01/20 02:01:00;;;;;;;;;;;16.20;39.40;;;;;;5093463;28;19920;-69
2024/01/20 02:03:25;;;;;;;;;;;16.20;39.40;;;;;;5094213;28;19920;-70
2024/01/20 02:05:51;;;;;;;;;;;16.20;39.40;;;;;;5094344;28;19927;-69
2024/01/20 02:08:20;;;;;;;;;;;16.20;39.40;;;;;;5093301;28;19924;-70
2024/01/20 02:10:49;;;;;;;;;;;16.20;39.30;;;;;;5094225;28;19924;-67
2024/01/20 02:13:15;;;;;;;;;;;16.20;39.30;;;;;;5092801;28;19970;-69
2024/01/20 02:15:40;;;;;;;;;;;16.20;39.40;;;;;;5093113;28;19924;-70
2024/01/20 02:18:06;;;;;;;;;;;16.10;39.30;;;;;;5093049;28;20019;-73
2024/01/20 02:20:31;;;;;;;;;;;16.10;39.40;;;;;;5092647;28;19922;-71
2024/01/20 02:22:57;;;;;;;;;;;16.20;39.50;;;;;;5092703;28;19927;-70
2024/01/20 02:25:22;;;;;;;;;;;16.10;39.40;;;;;;5092873;28;19931;-70
2024/01/20 02:27:48;;;;;;;;;;;16.10;39.50;;;;;;5094028;28;20011;-69
2024/01/20 02:30:14;;;;;;;;;;;16.10;39.50;;;;;;5092760;28;20252;-68
2024/01/20 02:32:39;;;;;;;;;;;16.10;39.40;;;;;;5092508;28;20015;-70
2024/01/20 02:35:08;;;;;;;;;;;16.10;39.50;;;;;;5092278;28;20028;-67
2024/01/20 02:37:36;;;;;;;;;;;16.00;39.40;;;;;;5093865;28;20299;-67
2024/01/20 02:40:02;;;;;;;;;;;16.00;39.40;;;;;;5094054;28;19969;-70
2024/01/20 02:42:28;;;;;;;;;;;16.10;39.50;;;;;;5092627;28;19920;-70
2024/01/20 02:44:53;;;;;;;;;;;16.00;39.50;;;;;;5126936;27;20389;-68
2024/01/20 02:47:19;;;;;;;;;;;16.10;39.40;;;;;;5093514;28;19963;-68
2024/01/20 02:49:48;;;;;;;;;;;16.00;39.40;;;;;;5093463;28;19924;-70
2024/01/20 02:52:16;;;;;;;;;;;16.00;39.40;;;;;;5092494;28;19924;-70
2024/01/20 02:54:42;;;;;;;;;;;16.00;39.50;;;;;;5091909;28;19928;-70
2024/01/20 02:57:07;;;;;;;;;;;16.00;39.40;;;;;;5092054;28;19920;-67
2024/01/20 02:59:33;;;;;;;;;;;16.00;39.40;;;;;;5092703;28;19923;-71
2024/01/20 03:02:01;;;;;;;;;;;16.00;39.40;;;;;;5093277;28;20288;-68
2024/01/20 03:04:27;;;;;;;;;;;16.00;39.40;;;;;;5092192;28;19931;-70
2024/01/20 03:06:53;;;;;;;;;;;16.00;39.50;;;;;;5091868;28;19924;-70
2024/01/20 03:09:19;;;;;;;;;;;16.00;39.40;;;;;;5093152;28;19965;-70
2024/01/20 03:11:44;;;;;;;;;;;16.00;39.40;;;;;;5093046;28;19955;-69
2024/01/20 03:14:10;;;;;;;;;;;16.00;39.50;;;;;;5091770;28;20337;-71
2024/01/20 03:16:36;;;;;;;;;;;16.00;39.40;;;;;;5093392;28;20003;-70
2024/01/20 03:19:04;;;;;;;;;;;16.00;40.30;;;;;;5126046;27;19920;-70
2024/01/20 03:21:30;;;;;;;;;;;15.90;39.50;;;;;;5093146;28;19927;-72
2024/01/20 03:23:58;;;;;;;;;;;15.90;39.50;;;;;;5091228;28;19920;-68
2024/01/20 03:26:24;;;;;;;;;;;15.90;39.50;;;;;;5093056;28;19920;-70
2024/01/20 03:28:49;;;;;;;;;;;15.90;39.50;;;;;;5126025;27;19974;-70
2024/01/20 03:31:15;;;;;;;;;;;15.90;39.50;;;;;;5091466;28;20268;-68
2024/01/20 03:33:40;;;;;;;;;;;15.90;39.50;;;;;;5092626;28;19924;-68
2024/01/20 03:36:06;;;;;;;;;;;15.90;39.60;;;;;;5091713;28;20287;-69
2024/01/20 03:38:31;;;;;;;;;;;15.80;39.40;;;;;;5091887;28;19920;-70
2024/01/20 03:40:57;;;;;;;;;;;15.80;39.50;;;;;;5091726;28;20432;-70
2024/01/20 03:43:23;;;;;;;;;;;15.80;39.50;;;;;;5091415;28;19924;-71
2024/01/20 03:45:48;;;;;;;;;;;15.80;39.50;;;;;;5092780;28;19946;-70
2024/01/20 03:48:14;;;;;;;;;;;15.80;39.40;;;;;;5093018;28;20379;-69
2024/01/20 03:50:39;;;;;;;;;;;15.80;39.50;;;;;;5092488;28;19920;-69
2024/01/20 03:53:05;;;;;;;;;;;15.80;39.40;;;;;;5094365;28;19923;-70
2024/01/20 03:55:31;;;;;;;;;;;15.80;39.50;;;;;;5112985;28;20378;-68
2024/01/20 03:57:57;;;;;;;;;;;15.80;39.50;;;;;;5128549;28;19942;-69
2024/01/20 04:00:22;;;;;;;;;;;15.80;39.50;;;;;;5094821;28;19954;-68
2024/01/20 04:02:48;;;;;;;;;;;15.80;39.50;;;;;;5094735;28;19920;-70
2024/01/20 04:05:14;;;;;;;;;;;15.80;39.50;;;;;;5094748;28;19920;-69
2024/01/20 04:07:39;;;;;;;;;;;15.80;39.50;;;;;;5128786;28;20355;-68
2024/01/20 04:10:05;;;;;;;;;;;15.80;39.50;;;;;;5094705;28;19920;-70
2024/01/20 04:12:30;;;;;;;;;;;15.70;39.50;;;;;;5094277;28;20382;-70
2024/01/20 04:14:56;;;;;;;;;;;15.70;39.50;;;;;;5094275;28;20326;-67
2024/01/20 04:17:22;;;;;;;;;;;15.70;39.50;;;;;;5094406;28;19967;-69
2024/01/20 04:19:47;;;;;;;;;;;15.70;39.50;;;;;;5094206;28;19920;-70
2024/01/20 04:22:15;;;;;;;;;;;15.70;39.50;;;;;;5112815;28;20279;-67
2024/01/20 04:24:41;;;;;;;;;;;15.70;39.50;;;;;;5094302;28;19920;-69
2024/01/20 04:27:06;;;;;;;;;;;15.70;39.50;;;;;;5094677;28;19927;-69
2024/01/20 04:29:32;;;;;;;;;;;15.70;39.50;;;;;;5094411;28;19927;-68
2024/01/20 04:31:57;;;;;;;;;;;15.70;39.50;;;;;;5094607;28;19919;-70
2024/01/20 04:34:23;;;;;;;;;;;15.70;39.40;;;;;;5112395;28;19924;-70
2024/01/20 04:36:48;;;;;;;;;;;15.70;39.50;;;;;;5131191;27;20279;-70
2024/01/20 04:39:14;;;;;;;;;;;15.60;39.40;;;;;;5098379;28;19985;-69
2024/01/20 04:41:40;;;;;;;;;;;15.70;39.40;;;;;;5097987;28;19920;-69
2024/01/20 04:44:05;;;;;;;;;;;15.70;39.40;;;;;;5116445;28;19927;-70
2024/01/20 04:46:31;;;;;;;;;;;15.60;39.50;;;;;;5097958;28;19942;-70
2024/01/20 04:48:56;;;;;;;;;;;15.60;39.50;;;;;;5098238;28;19926;-70
2024/01/20 04:51:23;;;;;;;;;;;15.60;39.50;;;;;;5097911;28;19927;-70
2024/01/20 04:53:48;;;;;;;;;;;15.60;39.50;;;;;;5115961;28;19963;-70
2024/01/20 04:56:17;;;;;;;;;;;16.00;39.70;;;;;;5116085;28;20386;-70
2024/01/20 04:58:43;;;;;;;;;;;16.50;39.20;;;;;;5131957;27;19972;-70
2024/01/20 05:01:08;;;;;;;;;;;16.90;38.60;;;;;;5115907;28;19920;-68
2024/01/20 05:03:37;;;;;;;;;;;17.50;38.10;;;;;;5132097;27;19924;-70
2024/01/20 05:06:03;;;;;;;;;;;18.10;37.30;;;;;;5115714;28;19927;-67
2024/01/20 05:08:28;;;;;;;;;;;18.80;36.30;;;;;;5097851;28;19920;-71
2024/01/20 05:10:54;;;;;;;;;;;19.60;35.10;;;;;;5097564;28;19927;-69
2024/01/20 05:13:19;;;;;;;;;;;20.20;34.30;;;;;;5097671;28;19924;-70
2024/01/20 05:15:45;;;;;;;;;;;20.80;33.70;;;;;;5097777;28;19919;-71
2024/01/20 05:18:10;;;;;;;;;;;21.30;32.90;;;;;;5097656;28;19920;-70
2024/01/20 05:20:36;;;;;;;;;;;21.70;32.10;;;;;;5097577;28;19931;-71
2024/01/20 05:23:01;;;;;;;;;;;22.20;31.60;;;;;;5115467;28;20361;-70
2024/01/20 05:25:27;;;;;;;;;;;22.50;31.10;;;;;;5115434;28;19973;-67
2024/01/20 05:27:53;;;;;;;;;;;22.80;30.60;;;;;;5131474;27;19930;-69
2024/01/20 05:30:19;;;;;;;;;;;23.10;30.40;;;;;;5114998;28;19919;-68
2024/01/20 05:32:44;;;;;;;;;;;23.40;30.00;;;;;;5097158;28;20475;-68
2024/01/20 05:35:10;;;;;;;;;;;23.50;29.60;;;;;;5097099;28;19927;-68
2024/01/20 05:37:35;;;;;;;;;;;23.50;29.50;;;;;;5097187;28;20294;-70
2024/01/20 05:40:03;;;;;;;;;;;23.50;29.60;;;;;;5096937;28;20010;-70
2024/01/20 05:42:28;;;;;;;;;;;23.40;29.50;;;;;;5115278;28;19920;-68
2024/01/20 05:44:54;;;;;;;;;;;23.30;29.70;;;;;;5115271;28;19943;-68
2024/01/20 05:47:19;;;;;;;;;;;23.20;29.70;;;;;;5096689;28;19927;-68
2024/01/20 05:49:45;;;;;;;;;;;23.10;29.70;;;;;;5096793;28;19920;-67
2024/01/20 05:52:10;;;;;;;;;;;22.90;29.90;;;;;;5114899;28;19920;-67
2024/01/20 05:54:36;;;;;;;;;;;22.70;30.00;;;;;;5096296;28;19938;-67
2024/01/20 05:57:02;;;;;;;;;;;22.50;30.30;;;;;;5114727;28;19926;-67
2024/01/20 05:59:27;;;;;;;;;;;22.30;30.50;;;;;;5114997;28;20371;-70
2024/01/20 06:01:53;;;;;;;;;;;22.20;30.80;;;;;;5096460;28;19924;-67
2024/01/20 06:04:19;;;;;;;;;;;22.00;31.00;;;;;;5096493;28;19926;-67
2024/01/20 06:06:46;;;;;;;;;;;21.90;31.00;;;;;;5114623;28;20275;-67
2024/01/20 06:09:11;;;;;;;;;;;21.70;31.10;;;;;;5096549;28;20030;-67
2024/01/20 06:11:37;;;;;;;;;;;21.50;31.20;;;;;;5114533;28;20410;-67
2024/01/20 06:14:02;;;;;;;;;;;21.40;31.60;;;;;;5096400;28;19928;-67
2024/01/20 06:16:28;;;;;;;;;;;21.20;31.60;;;;;;5096256;28;20307;-67
2024/01/20 06:18:54;;;;;;;;;;;21.10;31.90;;;;;;5096339;28;20321;-67
2024/01/20 06:21:21;;;;;;;;;;;21.00;32.00;;;;;;5114323;28;20002;-67
2024/01/20 06:23:48;;;;;;;;;;;20.90;32.10;;;;;;5096281;28;19920;-67
2024/01/20 06:26:13;;;;;;;;;;;20.80;32.30;;;;;;5130428;27;19939;-67
2024/01/20 06:28:39;;;;;;;;;;;20.70;32.40;;;;;;5095953;28;19919;-67
2024/01/20 06:31:04;;;;;;;;;;;20.50;32.50;;;;;;5114334;28;19934;-68
2024/01/20 06:33:30;;;;;;;;;;;20.40;32.50;;;;;;5114142;28;19970;-69
2024/01/20 06:35:55;;;;;;;;;;;20.30;32.70;;;;;;5096152;28;19927;-67
2024/01/20 06:38:21;;;;;;;;;;;20.20;32.80;;;;;;5129865;27;19990;-68
2024/01/20 06:40:46;;;;;;;;;;;20.10;32.90;;;;;;5096357;28;19927;-67
2024/01/20 06:43:12;;;;;;;;;;;20.00;33.10;;;;;;5095777;28;20442;-67
2024/01/20 06:45:37;;;;;;;;;;;19.90;33.10;;;;;;5114075;28;19972;-67
2024/01/20 06:48:04;;;;;;;;;;;19.80;33.30;;;;;;5096196;28;19941;-68
2024/01/20 06:50:30;;;;;;;;;;;19.60;34.10;;;;;;5114255;28;20362;-68
2024/01/20 06:52:55;;;;;;;;;;;19.50;33.50;;;;;;5095318;28;19931;-67
2024/01/20 06:55:21;;;;;;;;;;;19.40;33.60;;;;;;5113563;28;19946;-68
2024/01/20 06:57:48;;;;;;;;;;;19.30;33.80;;;;;;5113722;28;20381;-68
2024/01/20 07:00:17;;;;;;;;;;;19.20;33.80;;;;;;5113146;28;19920;-69
2024/01/20 07:02:43;;;;;;;;;;;19.10;34.00;;;;;;5113737;28;19924;-69
2024/01/20 07:05:09;;;;;;;;;;;19.00;34.10;;;;;;5095260;28;19927;-67
2024/01/20 07:07:37;;;;;;;;;;;18.80;34.20;;;;;;5095579;28;19926;-70
2024/01/20 07:10:04;;;;;;;;;;;18.70;34.40;;;;;;5095187;28;19930;-70
2024/01/20 07:12:29;;;;;;;;;;;18.60;34.50;;;;;;5095311;28;19923;-68
2024/01/20 07:14:55;;;;;;;;;;;18.40;34.70;;;;;;5095118;28;20279;-70
2024/01/20 07:17:20;;;;;;;;;;;18.40;34.90;;;;;;5095508;28;20048;-71
2024/01/20 07:19:46;;;;;;;;;;;18.30;35.00;;;;;;5095042;28;19920;-71
2024/01/20 07:22:11;;;;;;;;;;;18.10;35.10;;;;;;5129166;27;19919;-71
2024/01/20 07:24:37;;;;;;;;;;;18.00;36.00;;;;;;5113174;28;19923;-70
2024/01/20 07:27:02;;;;;;;;;;;17.90;35.40;;;;;;5094995;28;20006;-72
2024/01/20 07:29:28;;;;;;;;;;;17.80;35.50;;;;;;5095552;28;19926;-70
2024/01/20 07:31:53;;;;;;;;;;;17.70;35.60;;;;;;5094845;28;19920;-71
2024/01/20 07:34:20;;;;;;;;;;;17.60;35.70;;;;;;5113203;28;19969;-70
2024/01/20 07:36:45;;;;;;;;;;;17.60;35.90;;;;;;5095028;28;19926;-69
2024/01/20 07:39:11;;;;;;;;;;;17.50;36.00;;;;;;5095071;28;19919;-70
2024/01/20 07:41:37;;;;;;;;;;;17.40;36.10;;;;;;5113120;28;20313;-69
2024/01/20 07:44:02;;;;;;;;;;;17.30;36.20;;;;;;5113089;28;19919;-67
2024/01/20 07:46:28;;;;;;;;;;;17.20;36.30;;;;;;5094927;28;19919;-67
2024/01/20 07:48:53;;;;;;;;;;;17.20;36.50;;;;;;5112896;28;20014;-70
2024/01/20 07:51:22;;;;;;;;;;;17.10;36.50;;;;;;5094881;28;20014;-70
2024/01/20 07:53:47;;;;;;;;;;;17.00;36.60;;;;;;5094352;28;19924;-70
2024/01/20 07:56:15;;;;;;;;;;;17.00;36.70;;;;;;5094535;28;19924;-68
2024/01/20 07:58:41;;;;;;;;;;;16.90;36.70;;;;;;5094921;28;19977;-70
2024/01/20 08:01:07;;;;;;;;;;;16.80;36.80;;;;;;5128583;28;20004;-70
2024/01/20 08:03:32;;;;;;;;;;;16.80;36.90;;;;;;5094982;28;19986;-70
2024/01/20 08:06:01;;;;;;;;;;;16.70;37.80;;;;;;5112688;28;19919;-68
2024/01/20 08:08:27;;;;;;;;;;;16.70;37.10;;;;;;5112713;28;19926;-70
2024/01/20 08:10:52;;;;;;;;;;;16.60;37.10;;;;;;5116008;28;19924;-70
2024/01/20 08:13:19;;;;;;;;;;;16.50;37.10;;;;;;5117286;28;19959;-70
2024/01/20 08:15:45;;;;;;;;;;;16.50;37.30;;;;;;5116980;28;20290;-71
2024/01/20 08:18:10;;;;;;;;;;;16.40;37.40;;;;;;5116858;28;19920;-69
2024/01/20 08:20:36;;;;;;;;;;;16.40;37.50;;;;;;5098711;28;19989;-70
2024/01/20 08:23:02;;;;;;;;;;;16.40;37.50;;;;;;5098452;28;19919;-70
2024/01/20 08:25:30;;;;;;;;;;;16.30;37.50;;;;;;5098272;28;19920;-70
2024/01/20 08:27:55;;;;;;;;;;;16.30;37.60;;;;;;5116600;28;19920;-68
2024/01/20 08:30:22;;;;;;;;;;;16.20;37.60;;;;;;5098325;28;19920;-71
2024/01/20 08:32:47;;;;;;;;;;;16.20;37.70;;;;;;5116597;28;19962;-70
2024/01/20 08:35:13;;;;;;;;;;;16.20;37.80;;;;;;5132417;27;20389;-69
2024/01/20 08:37:38;;;;;;;;;;;16.20;37.80;;;;;;5116400;28;20022;-68
2024/01/20 08:40:04;;;;;;;;;;;16.20;37.90;;;;;;5098450;28;20317;-68
2024/01/20 08:42:29;;;;;;;;;;;16.20;37.80;;;;;;5132362;27;19927;-70
2024/01/20 08:44:55;;;;;;;;;;;16.40;37.90;;;;;;5116306;28;20393;-70
2024/01/20 08:47:23;;;;;;;;;;;16.90;37.60;;;;;;5098351;28;19972;-72
2024/01/20 08:49:51;;;;;;;;;;;17.40;37.10;;;;;;5116371;28;19926;-70
2024/01/20 08:52:17;;;;;;;;;;;17.70;36.50;;;;;;5116220;28;19926;-70
2024/01/20 08:54:43;;;;;;;;;;;18.10;36.00;;;;;;5097672;28;19993;-70
2024/01/20 08:57:09;;;;;;;;;;;18.60;35.40;;;;;;5115959;28;20402;-70
2024/01/20 08:59:34;;;;;;;;;;;19.20;34.80;;;;;;5098336;28;20056;-69
2024/01/20 09:02:00;;;;;;;;;;;19.90;34.70;;;;;;5097674;28;20007;-69
2024/01/20 09:04:25;;;;;;;;;;;20.40;33.20;;;;;;5097970;28;19919;-68
2024/01/20 09:06:51;;;;;;;;;;;20.90;32.40;;;;;;5097581;28;19927;-70
2024/01/20 09:09:17;;;;;;;;;;;21.40;31.60;;;;;;5115863;28;19927;-69
2024/01/20 09:11:43;;;;;;;;;;;21.90;31.10;;;;;;5115974;28;19978;-69
2024/01/20 09:14:09;;;;;;;;;;;22.20;30.70;;;;;;5115895;28;19959;-68
2024/01/20 09:16:34;;;;;;;;;;;22.60;30.10;;;;;;5097520;28;20189;-71
2024/01/20 09:19:00;;;;;;;;;;;22.90;30.00;;;;;;5097839;28;19924;-72
2024/01/20 09:21:25;;;;;;;;;;;23.10;29.60;;;;;;5096553;28;19924;-71
2024/01/20 09:23:51;;;;;;;;;;;23.30;29.40;;;;;;5131564;27;20004;-70
2024/01/20 09:26:17;;;;;;;;;;;23.40;29.10;;;;;;5097405;28;19950;-68
2024/01/20 09:28:42;;;;;;;;;;;23.50;29.20;;;;;;5097098;28;19950;-70
2024/01/20 09:31:08;;;;;;;;;;;23.50;29.10;;;;;;5097130;28;19920;-71
2024/01/20 09:33:33;;;;;;;;;;;23.40;29.10;;;;;;5096768;28;19985;-70
2024/01/20 09:36:03;;;;;;;;;;;23.30;29.20;;;;;;5115476;28;19920;-69
2024/01/20 09:38:28;;;;;;;;;;;23.20;29.30;;;;;;5115184;28;20428;-68
2024/01/20 09:40:56;;;;;;;;;;;23.00;29.40;;;;;;5115716;28;19920;-68
2024/01/20 09:43:22;;;;;;;;;;;22.80;29.50;;;;;;5096725;28;20383;-68
2024/01/20 09:45:48;;;;;;;;;;;22.60;29.70;;;;;;5115001;28;19920;-70
2024/01/20 09:48:13;;;;;;;;;;;22.40;29.90;;;;;;5097067;28;19931;-68
2024/01/20 09:50:39;;;;;;;;;;;22.20;30.00;;;;;;5096758;28;19920;-69
2024/01/20 09:53:12;;;;;;;;;;;22.00;30.30;;;;;;5114876;27;20010;-71
2024/01/20 09:55:37;;;;;;;;;;;21.80;30.40;;;;;;5096608;28;19923;-69
2024/01/20 09:58:03;;;;;;;;;;;21.60;30.50;;;;;;5114947;28;19923;-69
2024/01/20 10:00:29;;;;;;;;;;;21.50;30.70;;;;;;5096870;28;20291;-69
2024/01/20 10:02:55;;;;;;;;;;;21.30;30.80;;;;;;5096819;28;20423;-71
2024/01/20 10:05:23;;;;;;;;;;;21.20;31.10;;;;;;5096406;28;19920;-71
2024/01/20 10:07:48;;;;;;;;;;;21.10;31.30;;;;;;5096420;28;19927;-69
2024/01/20 10:10:19;;;;;;;;;;;20.90;31.40;;;;;;5096598;28;19919;-70
2024/01/20 10:12:49;;;;;;;;;;;20.80;31.60;;;;;;5114581;28;19927;-71
2024/01/20 10:15:15;;;;;;;;;;;20.70;31.80;;;;;;5114666;28;20268;-70
2024/01/20 10:17:41;;;;;;;;;;;20.60;31.90;;;;;;5114696;28;19930;-72
2024/01/20 10:20:06;;;;;;;;;;;20.50;32.10;;;;;;5096383;28;20438;-70
2024/01/20 10:22:32;;;;;;;;;;;20.30;32.20;;;;;;5096396;28;19969;-70
2024/01/20 10:24:57;;;;;;;;;;;20.30;32.30;;;;;;5114333;28;19920;-71
2024/01/20 10:27:23;;;;;;;;;;;20.10;32.40;;;;;;5096110;28;19924;-69
2024/01/20 10:29:49;;;;;;;;;;;20.00;32.50;;;;;;5096417;28;19920;-70
2024/01/20 10:32:15;;;;;;;;;;;19.90;32.70;;;;;;5096028;28;20370;-70
2024/01/20 10:34:41;;;;;;;;;;;19.80;32.80;;;;;;5094873;28;20344;-70
2024/01/20 10:37:10;;;;;;;;;;;19.70;32.90;;;;;;5114188;28;19924;-70
2024/01/20 10:39:39;;;;;;;;;;;19.60;33.10;;;;;;5114155;28;20302;-71
2024/01/20 10:42:06;;;;;;;;;;;19.50;33.20;;;;;;5113853;28;20290;-71
2024/01/20 10:44:33;;;;;;;;;;;19.40;33.30;;;;;;5095734;28;19996;-70
2024/01/20 10:47:01;;;;;;;;;;;19.30;33.40;;;;;;5114054;28;19924;-70
2024/01/20 10:49:27;;;;;;;;;;;19.20;33.60;;;;;;5095969;28;19976;-70
2024/01/20 10:51:53;;;;;;;;;;;19.00;33.70;;;;;;5095896;28;20368;-71
2024/01/20 10:54:19;;;;;;;;;;;19.00;33.90;;;;;;5129296;27;20398;-71
2024/01/20 10:56:47;;;;;;;;;;;18.90;34.00;;;;;;5095755;28;19973;-73
2024/01/20 10:59:14;;;;;;;;;;;18.80;34.00;;;;;;5095534;28;19920;-70
2024/01/20 11:01:41;;;;;;;;;;;18.70;34.20;;;;;;5113659;28;19920;-69
2024/01/20 11:04:07;;;;;;;;;;;18.50;34.30;;;;;;5113615;28;20006;-70
2024/01/20 11:06:34;;;;;;;;;;;18.50;34.50;;;;;;5095207;28;19955;-70
2024/01/20 11:09:01;;;;;;;;;;;18.40;34.60;;;;;;5113567;28;20259;-69
2024/01/20 11:11:27;;;;;;;;;;;18.30;34.70;;;;;;5095490;28;19919;-70
2024/01/20 11:13:57;;;;;;;;;;;18.20;34.80;;;;;;5113626;28;20332;-69
2024/01/20 11:16:22;;;;;;;;;;;18.10;34.90;;;;;;5095180;28;19919;-69
2024/01/20 11:18:48;;;;;;;;;;;18.00;35.10;;;;;;5113452;28;19927;-71
2024/01/20 11:21:15;;;;;;;;;;;17.90;35.20;;;;;;5095022;28;19920;-69
2024/01/20 11:23:46;;;;;;;;;;;17.90;35.30;;;;;;5095341;28;19972;-70
2024/01/20 11:26:12;;;;;;;;;;;17.80;35.50;;;;;;5113192;28;20014;-69
2024/01/20 11:28:42;;;;;;;;;;;17.70;35.50;;;;;;5094735;28;19919;-69
2024/01/20 11:31:25;;;;;;;;;;;17.60;35.60;;;;;;5095092;28;19920;-71
2024/01/20 11:33:50;;;;;;;;;;;17.60;35.70;;;;;;5095061;28;19927;-70
2024/01/20 11:36:16;;;;;;;;;;;17.50;35.80;;;;;;5095222;28;20323;-70
2024/01/20 11:38:41;;;;;;;;;;;17.40;35.90;;;;;;5094734;28;20362;-71
2024/01/20 11:41:07;;;;;;;;;;;17.30;36.00;;;;;;5095106;28;19926;-68
2024/01/20 11:43:33;;;;;;;;;;;17.30;36.20;;;;;;5094661;28;20375;-71
2024/01/20 11:46:03;;;;;;;;;;;17.20;36.30;;;;;;5094690;28;19919;-71
2024/01/20 11:48:29;;;;;;;;;;;17.10;36.40;;;;;;5094858;28;20302;-69
2024/01/20 11:50:55;;;;;;;;;;;17.00;36.40;;;;;;5094675;28;19996;-71
2024/01/20 11:53:21;;;;;;;;;;;17.00;36.50;;;;;;5094368;28;20024;-71
2024/01/20 11:55:53;;;;;;;;;;;17.00;36.60;;;;;;5094378;28;21527;-70
2024/01/20 11:58:18;;;;;;;;;;;16.90;36.80;;;;;;5094804;28;19963;-70
2024/01/20 12:00:44;;;;;;;;;;;16.80;36.90;;;;;;5094878;28;20374;-68
2024/01/20 12:03:09;;;;;;;;;;;16.80;37.00;;;;;;5094862;28;20252;-70
2024/01/20 12:05:35;;;;;;;;;;;16.70;37.00;;;;;;5094977;28;20454;-70
2024/01/20 12:08:01;;;;;;;;;;;16.60;37.10;;;;;;5094721;28;20298;-69
2024/01/20 12:10:26;;;;;;;;;;;16.60;37.10;;;;;;5094685;28;20421;-68
2024/01/20 12:12:52;;;;;;;;;;;16.60;37.20;;;;;;5094488;28;19924;-70
2024/01/20 12:15:18;;;;;;;;;;;16.60;37.30;;;;;;5112763;28;19924;-71
2024/01/20 12:17:43;;;;;;;;;;;16.60;37.30;;;;;;5094725;28;19924;-68
2024/01/20 12:20:09;;;;;;;;;;;16.50;37.40;;;;;;5094281;28;19919;-71
2024/01/20 12:22:35;;;;;;;;;;;16.50;37.40;;;;;;5112586;28;19927;-70
2024/01/20 12:25:01;;;;;;;;;;;16.50;37.50;;;;;;5094563;28;20405;-70
2024/01/20 12:27:27;;;;;;;;;;;16.40;37.50;;;;;;5094681;28;19942;-69
2024/01/20 12:29:52;;;;;;;;;;;16.40;37.50;;;;;;5112732;28;20450;-70
2024/01/20 12:32:19;;;;;;;;;;;16.40;37.50;;;;;;5094426;28;20294;-71
2024/01/20 12:34:44;;;;;;;;;;;16.40;37.60;;;;;;5093867;28;19931;-70
2024/01/20 12:37:10;;;;;;;;;;;16.40;37.70;;;;;;5112451;28;20371;-68
2024/01/20 12:39:35;;;;;;;;;;;16.40;37.70;;;;;;5128215;28;20230;-68
2024/01/20 12:42:02;;;;;;;;;;;16.30;37.60;;;;;;5094481;28;19924;-70
2024/01/20 12:44:27;;;;;;;;;;;16.30;37.60;;;;;;5112505;28;20302;-68
2024/01/20 12:46:53;;;;;;;;;;;16.30;37.60;;;;;;5128227;28;19924;-71
2024/01/20 12:49:20;;;;;;;;;;;16.30;37.70;;;;;;5094420;28;19923;-68
2024/01/20 12:51:46;;;;;;;;;;;16.30;37.80;;;;;;5094238;28;19927;-70
2024/01/20 12:54:15;;;;;;;;;;;16.30;37.80;;;;;;5093735;28;19923;-70
2024/01/20 12:56:40;;;;;;;;;;;16.30;37.90;;;;;;5094578;28;19924;-70
2024/01/20 12:59:06;;;;;;;;;;;16.30;37.90;;;;;;5116693;28;20037;-68
2024/01/20 13:01:31;;;;;;;;;;;16.30;37.80;;;;;;5132012;27;19924;-70
2024/01/20 13:03:57;;;;;;;;;;;16.20;37.80;;;;;;5098055;28;19994;-70
2024/01/20 13:06:22;;;;;;;;;;;16.20;37.90;;;;;;5097563;28;19963;-72
2024/01/20 13:08:48;;;;;;;;;;;16.20;37.90;;;;;;5097983;28;19927;-70
2024/01/20 13:11:14;;;;;;;;;;;16.20;37.90;;;;;;5115758;28;20382;-68
2024/01/20 13:13:40;;;;;;;;;;;16.20;38.00;;;;;;5097887;28;19975;-71
2024/01/20 13:16:06;;;;;;;;;;;16.20;37.90;;;;;;5097608;28;19919;-67
2024/01/20 13:18:31;;;;;;;;;;;16.20;38.00;;;;;;5115847;28;19926;-71
2024/01/20 13:20:58;;;;;;;;;;;16.20;38.00;;;;;;5097768;28;20177;-71
2024/01/20 13:23:23;;;;;;;;;;;16.20;38.10;;;;;;5097347;28;19924;-71
2024/01/20 13:25:49;;;;;;;;;;;16.20;38.00;;;;;;5115473;28;20007;-72
2024/01/20 13:28:19;;;;;;;;;;;16.20;38.00;;;;;;5115559;28;20396;-72
2024/01/20 13:30:45;;;;;;;;;;;16.20;38.10;;;;;;5115631;28;19988;-71
2024/01/20 13:33:10;;;;;;;;;;;16.20;38.10;;;;;;5097320;28;20363;-72
2024/01/20 13:35:36;;;;;;;;;;;16.20;38.10;;;;;;5131202;27;19931;-69
2024/01/20 13:38:01;;;;;;;;;;;16.20;38.10;;;;;;5115330;28;19920;-72
2024/01/20 13:40:27;;;;;;;;;;;16.20;38.10;;;;;;5097296;28;19919;-68
2024/01/20 13:42:53;;;;;;;;;;;16.10;38.00;;;;;;5131393;27;20283;-72
2024/01/20 13:45:21;;;;;;;;;;;16.10;38.10;;;;;;5097325;28;19920;-72
2024/01/20 13:47:47;;;;;;;;;;;16.10;38.20;;;;;;5097130;28;19920;-71
2024/01/20 13:50:12;;;;;;;;;;;16.20;38.20;;;;;;5115136;28;20401;-71
2024/01/20 13:52:38;;;;;;;;;;;16.10;38.20;;;;;;5130930;27;20371;-68
2024/01/20 13:55:05;;;;;;;;;;;16.10;38.20;;;;;;5096610;28;19928;-70
2024/01/20 13:57:30;;;;;;;;;;;16.10;38.10;;;;;;5096581;28;19924;-68
2024/01/20 13:59:56;;;;;;;;;;;16.20;38.20;;;;;;5096939;28;19926;-71
2024/01/20 14:02:21;;;;;;;;;;;16.10;38.10;;;;;;5096905;28;19980;-69
2024/01/20 14:04:53;;;;;;;;;;;16.10;38.20;;;;;;5115019;28;20434;-69
2024/01/20 14:07:18;;;;;;;;;;;16.10;38.10;;;;;;5114591;28;20004;-71
2024/01/20 14:09:44;;;;;;;;;;;16.10;38.20;;;;;;5114876;28;19920;-72